createdAt,value
2023-01-17T00:07:22.037Z,954.79
2023-01-17T00:22:23.972Z,954.89
2023-01-17T00:37:26.019Z,954.98
2023-01-17T00:52:27.944Z,955.09
2023-01-17T01:07:29.986Z,955.17
2023-01-17T01:22:31.936Z,955.16
2023-01-17T01:37:33.869Z,955.22
2023-01-17T01:52:35.827Z,955.29
2023-01-17T02:07:37.936Z,955.41
2023-01-17T02:22:39.880Z,955.54
2023-01-17T02:37:42.036Z,955.59
2023-01-17T02:52:44.038Z,955.55
2023-01-17T03:07:45.952Z,955.6
2023-01-17T03:22:48.216Z,955.75
2023-01-17T03:37:50.198Z,955.92
2023-01-17T03:52:52.081Z,955.95
2023-01-17T04:07:53.973Z,956.06
2023-01-17T04:22:55.899Z,956.16
2023-01-17T04:37:57.861Z,956.36
2023-01-17T04:52:59.879Z,956.34
2023-01-17T05:08:01.793Z,956.55
2023-01-17T05:23:03.860Z,956.65
2023-01-17T05:38:05.798Z,956.7
2023-01-17T05:53:07.781Z,956.82
2023-01-17T06:08:09.738Z,956.88
2023-01-17T06:23:11.721Z,957.03
2023-01-17T06:38:13.707Z,957.23
2023-01-17T06:53:15.615Z,957.23
2023-01-17T07:08:17.652Z,957.36
2023-01-17T07:23:19.629Z,957.4
2023-01-17T07:38:21.571Z,957.42
2023-01-17T07:53:23.489Z,957.55
2023-01-17T08:08:25.540Z,957.59
2023-01-17T08:23:27.509Z,957.73
2023-01-17T08:38:29.471Z,957.72
2023-01-17T08:53:31.378Z,957.76
2023-01-17T09:08:33.386Z,957.79
2023-01-17T09:23:35.356Z,957.98
2023-01-17T09:38:37.369Z,958.18
2023-01-17T09:53:39.275Z,958.3
2023-01-17T10:08:41.188Z,958.36
2023-01-17T10:23:43.092Z,958.44
2023-01-17T10:38:45.254Z,958.48
2023-01-17T10:53:47.176Z,958.41
2023-01-17T11:08:49.137Z,958.58
2023-01-17T11:23:51.136Z,958.66
2023-01-17T11:38:53.105Z,958.77
2023-01-17T11:53:55.028Z,958.84
2023-01-17T12:08:56.964Z,958.96
2023-01-17T12:23:58.964Z,959.13
2023-01-17T12:39:01.190Z,959.19
2023-01-17T12:54:04.144Z,959.39
2023-01-17T13:09:06.206Z,959.53
2023-01-17T13:24:08.091Z,959.78
2023-01-17T13:39:10.019Z,959.92
2023-01-17T13:54:11.978Z,960.12
2023-01-17T14:09:13.972Z,960.24
2023-01-17T14:24:15.882Z,960.38
2023-01-17T14:39:17.811Z,960.55
2023-01-17T14:54:19.738Z,960.53
2023-01-17T15:09:21.875Z,960.56
2023-01-17T15:24:23.815Z,960.55
2023-01-17T15:39:25.767Z,960.76
2023-01-17T15:54:27.638Z,960.84
2023-01-17T16:09:29.582Z,960.84
2023-01-17T16:24:31.511Z,960.97
2023-01-17T16:39:33.491Z,961.03
2023-01-17T16:54:35.436Z,961.13
2023-01-17T17:09:37.388Z,961.29
2023-01-17T17:24:39.318Z,961.5
2023-01-17T17:39:41.218Z,961.49
2023-01-17T17:54:43.156Z,961.56
2023-01-17T18:09:45.090Z,961.8
2023-01-17T18:24:47.032Z,961.88
2023-01-17T18:39:49.029Z,961.93
2023-01-17T18:54:50.929Z,961.94
2023-01-17T19:09:52.901Z,961.8
2023-01-17T19:24:54.860Z,961.77
2023-01-17T19:39:56.748Z,961.58
2023-01-17T19:54:58.666Z,961.48
2023-01-17T20:10:00.616Z,961.47
2023-01-17T20:25:02.554Z,961.48
2023-01-17T20:40:04.507Z,961.53
2023-01-17T20:55:06.420Z,961.41
2023-01-17T21:10:08.340Z,961.32
2023-01-17T21:25:10.528Z,961.32
2023-01-17T21:40:12.457Z,961.4
2023-01-17T21:55:14.408Z,961.39
2023-01-17T22:10:16.293Z,961.43
2023-01-17T22:25:18.496Z,961.55
2023-01-17T22:40:20.423Z,961.69
2023-01-17T22:55:22.301Z,961.58
2023-01-17T23:10:24.206Z,961.81
2023-01-17T23:25:26.163Z,961.95
2023-01-17T23:40:28.343Z,962.12
2023-01-17T23:55:30.412Z,962.14
